sensor_id;sensor_type;location;lat;lon;timestamp;P1;durP1;ratioP1;P2;durP2;ratioP2
28427;SDS011;15662;49.128;8.520;2023-06-05T00:01:19;3.40;;;1.80;;
28427;SDS011;15662;49.128;8.520;2023-06-05T00:03:46;1.63;;;1.50;;
28427;SDS011;15662;49.128;8.520;2023-06-05T00:06:14;2.55;;;1.73;;
28427;SDS011;15662;49.128;8.520;2023-06-05T00:08:42;2.90;;;1.60;;
28427;SDS011;15662;49.128;8.520;2023-06-05T00:11:10;2.13;;;1.95;;
28427;SDS011;15662;49.128;8.520;2023-06-05T00:13:38;2.10;;;1.90;;
28427;SDS011;15662;49.128;8.520;2023-06-05T00:16:06;4.20;;;2.00;;
28427;SDS011;15662;49.128;8.520;2023-06-05T00:18:34;2.95;;;1.80;;
28427;SDS011;15662;49.128;8.520;2023-06-05T00:21:02;2.80;;;1.58;;
28427;SDS011;15662;49.128;8.520;2023-06-05T00:23:31;2.15;;;1.95;;
28427;SDS011;15662;49.128;8.520;2023-06-05T00:25:59;2.25;;;1.83;;
28427;SDS011;15662;49.128;8.520;2023-06-05T00:28:26;2.03;;;1.92;;
28427;SDS011;15662;49.128;8.520;2023-06-05T00:30:54;4.20;;;2.10;;
28427;SDS011;15662;49.128;8.520;2023-06-05T00:33:22;3.05;;;1.85;;
28427;SDS011;15662;49.128;8.520;2023-06-05T00:35:50;2.20;;;2.00;;
28427;SDS011;15662;49.128;8.520;2023-06-05T00:38:18;2.65;;;2.30;;
28427;SDS011;15662;49.128;8.520;2023-06-05T00:40:47;3.00;;;2.70;;
28427;SDS011;15662;49.128;8.520;2023-06-05T00:43:15;4.57;;;2.75;;
28427;SDS011;15662;49.128;8.520;2023-06-05T00:45:43;5.03;;;2.83;;
28427;SDS011;15662;49.128;8.520;2023-06-05T00:48:12;4.25;;;2.88;;
28427;SDS011;15662;49.128;8.520;2023-06-05T00:50:40;3.10;;;2.60;;
28427;SDS011;15662;49.128;8.520;2023-06-05T00:53:08;4.18;;;2.85;;
28427;SDS011;15662;49.128;8.520;2023-06-05T00:55:36;4.72;;;3.03;;
28427;SDS011;15662;49.128;8.520;2023-06-05T00:58:04;3.10;;;2.80;;
28427;SDS011;15662;49.128;8.520;2023-06-05T01:00:32;3.00;;;2.70;;
28427;SDS011;15662;49.128;8.520;2023-06-05T01:03:01;2.95;;;2.50;;
28427;SDS011;15662;49.128;8.520;2023-06-05T01:05:29;2.70;;;2.50;;
28427;SDS011;15662;49.128;8.520;2023-06-05T01:07:57;4.38;;;2.78;;
28427;SDS011;15662;49.128;8.520;2023-06-05T01:10:25;2.67;;;2.47;;
28427;SDS011;15662;49.128;8.520;2023-06-05T01:12:55;3.00;;;2.63;;
28427;SDS011;15662;49.128;8.520;2023-06-05T01:15:35;3.45;;;2.67;;
28427;SDS011;15662;49.128;8.520;2023-06-05T01:18:05;4.00;;;2.37;;
28427;SDS011;15662;49.128;8.520;2023-06-05T01:20:36;2.90;;;2.63;;
28427;SDS011;15662;49.128;8.520;2023-06-05T01:23:06;2.78;;;2.50;;
28427;SDS011;15662;49.128;8.520;2023-06-05T01:25:35;2.95;;;2.50;;
28427;SDS011;15662;49.128;8.520;2023-06-05T01:28:17;4.72;;;2.60;;
28427;SDS011;15662;49.128;8.520;2023-06-05T01:31:14;2.67;;;2.47;;
28427;SDS011;15662;49.128;8.520;2023-06-05T01:33:44;2.30;;;2.10;;
28427;SDS011;15662;49.128;8.520;2023-06-05T01:36:29;4.05;;;2.30;;
28427;SDS011;15662;49.128;8.520;2023-06-05T01:38:59;2.20;;;2.00;;
28427;SDS011;15662;49.128;8.520;2023-06-05T01:41:27;4.57;;;2.10;;
28427;SDS011;15662;49.128;8.520;2023-06-05T01:43:56;3.17;;;2.33;;
28427;SDS011;15662;49.128;8.520;2023-06-05T01:46:25;2.75;;;2.20;;
28427;SDS011;15662;49.128;8.520;2023-06-05T01:48:53;2.38;;;2.05;;
28427;SDS011;15662;49.128;8.520;2023-06-05T01:51:21;4.20;;;2.30;;
28427;SDS011;15662;49.128;8.520;2023-06-05T01:53:49;3.03;;;2.38;;
28427;SDS011;15662;49.128;8.520;2023-06-05T01:56:17;3.20;;;2.15;;
28427;SDS011;15662;49.128;8.520;2023-06-05T01:58:51;2.50;;;2.17;;
28427;SDS011;15662;49.128;8.520;2023-06-05T02:01:20;3.13;;;2.13;;
28427;SDS011;15662;49.128;8.520;2023-06-05T02:03:50;2.40;;;1.92;;
28427;SDS011;15662;49.128;8.520;2023-06-05T02:06:20;2.70;;;2.13;;
28427;SDS011;15662;49.128;8.520;2023-06-05T02:08:49;2.08;;;1.95;;
28427;SDS011;15662;49.128;8.520;2023-06-05T02:11:17;4.57;;;2.20;;
28427;SDS011;15662;49.128;8.520;2023-06-05T02:13:45;3.55;;;1.92;;
28427;SDS011;15662;49.128;8.520;2023-06-05T02:16:16;2.53;;;2.33;;
28427;SDS011;15662;49.128;8.520;2023-06-05T02:18:44;2.30;;;2.00;;
28427;SDS011;15662;49.128;8.520;2023-06-05T02:23:43;3.10;;;2.10;;
28427;SDS011;15662;49.128;8.520;2023-06-05T02:26:12;4.32;;;2.10;;
28427;SDS011;15662;49.128;8.520;2023-06-05T02:28:40;2.53;;;2.25;;
28427;SDS011;15662;49.128;8.520;2023-06-05T02:31:08;2.25;;;2.05;;
28427;SDS011;15662;49.128;8.520;2023-06-05T02:33:36;2.90;;;2.30;;
28427;SDS011;15662;49.128;8.520;2023-06-05T02:36:04;5.43;;;2.40;;
28427;SDS011;15662;49.128;8.520;2023-06-05T02:38:32;2.10;;;1.90;;
28427;SDS011;15662;49.128;8.520;2023-06-05T02:41:00;2.65;;;2.22;;
28427;SDS011;15662;49.128;8.520;2023-06-05T02:43:28;2.15;;;2.00;;
28427;SDS011;15662;49.128;8.520;2023-06-05T02:45:56;2.20;;;2.00;;
28427;SDS011;15662;49.128;8.520;2023-06-05T02:48:24;2.65;;;2.28;;
28427;SDS011;15662;49.128;8.520;2023-06-05T02:50:54;2.47;;;2.30;;
28427;SDS011;15662;49.128;8.520;2023-06-05T02:53:22;3.50;;;2.30;;
28427;SDS011;15662;49.128;8.520;2023-06-05T02:55:50;2.58;;;2.38;;
28427;SDS011;15662;49.128;8.520;2023-06-05T02:58:19;3.38;;;2.38;;
28427;SDS011;15662;49.128;8.520;2023-06-05T03:00:54;2.42;;;2.22;;
28427;SDS011;15662;49.128;8.520;2023-06-05T03:03:34;2.58;;;2.17;;
28427;SDS011;15662;49.128;8.520;2023-06-05T03:06:02;4.28;;;2.20;;
28427;SDS011;15662;49.128;8.520;2023-06-05T03:08:41;3.33;;;2.08;;
28427;SDS011;15662;49.128;8.520;2023-06-05T03:11:13;2.42;;;2.05;;
28427;SDS011;15662;49.128;8.520;2023-06-05T03:13:41;3.53;;;1.92;;
28427;SDS011;15662;49.128;8.520;2023-06-05T03:16:09;2.25;;;2.05;;
28427;SDS011;15662;49.128;8.520;2023-06-05T03:18:42;2.13;;;2.00;;
28427;SDS011;15662;49.128;8.520;2023-06-05T03:21:09;3.38;;;2.22;;
28427;SDS011;15662;49.128;8.520;2023-06-05T03:23:38;2.30;;;2.10;;
28427;SDS011;15662;49.128;8.520;2023-06-05T03:26:07;2.40;;;2.05;;
28427;SDS011;15662;49.128;8.520;2023-06-05T03:28:35;4.78;;;2.20;;
28427;SDS011;15662;49.128;8.520;2023-06-05T03:31:07;2.53;;;2.20;;
28427;SDS011;15662;49.128;8.520;2023-06-05T03:33:40;4.05;;;2.03;;
28427;SDS011;15662;49.128;8.520;2023-06-05T03:36:09;2.83;;;2.33;;
28427;SDS011;15662;49.128;8.520;2023-06-05T03:38:37;2.05;;;1.95;;
28427;SDS011;15662;49.128;8.520;2023-06-05T03:41:05;4.45;;;2.20;;
28427;SDS011;15662;49.128;8.520;2023-06-05T03:43:34;4.10;;;2.20;;
28427;SDS011;15662;49.128;8.520;2023-06-05T03:46:03;3.13;;;2.33;;
28427;SDS011;15662;49.128;8.520;2023-06-05T03:48:31;3.88;;;2.55;;
28427;SDS011;15662;49.128;8.520;2023-06-05T03:50:59;3.13;;;2.20;;
28427;SDS011;15662;49.128;8.520;2023-06-05T03:53:28;2.40;;;2.20;;
28427;SDS011;15662;49.128;8.520;2023-06-05T03:55:57;2.63;;;2.13;;
28427;SDS011;15662;49.128;8.520;2023-06-05T03:58:33;2.97;;;2.30;;
28427;SDS011;15662;49.128;8.520;2023-06-05T04:01:02;2.50;;;2.20;;
28427;SDS011;15662;49.128;8.520;2023-06-05T04:03:30;3.03;;;2.30;;
28427;SDS011;15662;49.128;8.520;2023-06-05T04:05:59;3.38;;;2.50;;
28427;SDS011;15662;49.128;8.520;2023-06-05T04:08:27;2.92;;;2.63;;
28427;SDS011;15662;49.128;8.520;2023-06-05T04:10:55;4.05;;;2.53;;
28427;SDS011;15662;49.128;8.520;2023-06-05T04:13:23;7.20;;;2.15;;
28427;SDS011;15662;49.128;8.520;2023-06-05T04:15:52;5.32;;;2.33;;
28427;SDS011;15662;49.128;8.520;2023-06-05T04:18:21;5.57;;;2.30;;
28427;SDS011;15662;49.128;8.520;2023-06-05T04:20:51;3.63;;;2.40;;
28427;SDS011;15662;49.128;8.520;2023-06-05T04:23:19;4.03;;;2.20;;
28427;SDS011;15662;49.128;8.520;2023-06-05T04:25:47;4.18;;;2.35;;
28427;SDS011;15662;49.128;8.520;2023-06-05T04:28:16;3.63;;;2.45;;
28427;SDS011;15662;49.128;8.520;2023-06-05T04:30:44;2.63;;;2.33;;
28427;SDS011;15662;49.128;8.520;2023-06-05T04:33:15;7.35;;;2.50;;
28427;SDS011;15662;49.128;8.520;2023-06-05T04:35:43;2.67;;;2.20;;
28427;SDS011;15662;49.128;8.520;2023-06-05T04:38:11;3.13;;;2.50;;
28427;SDS011;15662;49.128;8.520;2023-06-05T04:40:41;5.50;;;2.35;;
28427;SDS011;15662;49.128;8.520;2023-06-05T04:43:11;3.28;;;2.15;;
28427;SDS011;15662;49.128;8.520;2023-06-05T04:45:39;4.78;;;2.90;;
28427;SDS011;15662;49.128;8.520;2023-06-05T04:48:09;5.97;;;2.38;;
28427;SDS011;15662;49.128;8.520;2023-06-05T04:50:37;4.72;;;2.50;;
28427;SDS011;15662;49.128;8.520;2023-06-05T04:53:09;2.40;;;2.10;;
28427;SDS011;15662;49.128;8.520;2023-06-05T04:55:39;3.47;;;2.67;;
28427;SDS011;15662;49.128;8.520;2023-06-05T04:58:07;9.73;;;3.65;;
28427;SDS011;15662;49.128;8.520;2023-06-05T05:00:35;3.92;;;2.67;;
28427;SDS011;15662;49.128;8.520;2023-06-05T05:03:05;3.53;;;2.40;;
28427;SDS011;15662;49.128;8.520;2023-06-05T05:05:33;3.70;;;2.50;;
28427;SDS011;15662;49.128;8.520;2023-06-05T05:08:04;4.53;;;2.35;;
28427;SDS011;15662;49.128;8.520;2023-06-05T05:10:32;4.00;;;2.50;;
28427;SDS011;15662;49.128;8.520;2023-06-05T05:13:00;2.45;;;1.92;;
28427;SDS011;15662;49.128;8.520;2023-06-05T05:15:29;3.22;;;2.47;;
28427;SDS011;15662;49.128;8.520;2023-06-05T05:17:58;5.40;;;2.50;;
28427;SDS011;15662;49.128;8.520;2023-06-05T05:20:31;4.78;;;2.20;;
28427;SDS011;15662;49.128;8.520;2023-06-05T05:23:02;3.30;;;2.22;;
28427;SDS011;15662;49.128;8.520;2023-06-05T05:25:30;4.30;;;2.97;;
28427;SDS011;15662;49.128;8.520;2023-06-05T05:27:58;3.03;;;2.22;;
28427;SDS011;15662;49.128;8.520;2023-06-05T05:30:26;2.88;;;2.20;;
28427;SDS011;15662;49.128;8.520;2023-06-05T05:32:54;5.13;;;3.65;;
28427;SDS011;15662;49.128;8.520;2023-06-05T05:35:24;4.90;;;2.45;;
28427;SDS011;15662;49.128;8.520;2023-06-05T05:37:52;2.42;;;2.20;;
28427;SDS011;15662;49.128;8.520;2023-06-05T05:40:20;2.20;;;1.92;;
28427;SDS011;15662;49.128;8.520;2023-06-05T05:42:47;4.78;;;2.05;;
28427;SDS011;15662;49.128;8.520;2023-06-05T05:45:16;3.08;;;2.17;;
28427;SDS011;15662;49.128;8.520;2023-06-05T05:47:44;3.47;;;2.67;;
28427;SDS011;15662;49.128;8.520;2023-06-05T05:50:14;4.82;;;2.28;;
28427;SDS011;15662;49.128;8.520;2023-06-05T05:52:41;2.58;;;2.33;;
28427;SDS011;15662;49.128;8.520;2023-06-05T05:55:16;2.80;;;2.05;;
28427;SDS011;15662;49.128;8.520;2023-06-05T05:57:44;3.58;;;2.10;;
28427;SDS011;15662;49.128;8.520;2023-06-05T06:00:14;2.70;;;1.88;;
28427;SDS011;15662;49.128;8.520;2023-06-05T06:02:42;1.88;;;1.77;;
28427;SDS011;15662;49.128;8.520;2023-06-05T06:05:10;2.00;;;1.80;;
28427;SDS011;15662;49.128;8.520;2023-06-05T06:07:39;4.38;;;2.10;;
28427;SDS011;15662;49.128;8.520;2023-06-05T06:10:09;2.63;;;1.77;;
28427;SDS011;15662;49.128;8.520;2023-06-05T06:12:39;2.15;;;1.95;;
28427;SDS011;15662;49.128;8.520;2023-06-05T06:15:08;3.45;;;1.80;;
28427;SDS011;15662;49.128;8.520;2023-06-05T06:17:37;2.00;;;1.77;;
28427;SDS011;15662;49.128;8.520;2023-06-05T06:20:06;2.55;;;2.13;;
28427;SDS011;15662;49.128;8.520;2023-06-05T06:22:36;2.33;;;1.95;;
28427;SDS011;15662;49.128;8.520;2023-06-05T06:25:04;4.03;;;1.85;;
28427;SDS011;15662;49.128;8.520;2023-06-05T06:27:33;2.53;;;1.83;;
28427;SDS011;15662;49.128;8.520;2023-06-05T06:30:02;3.45;;;1.60;;
28427;SDS011;15662;49.128;8.520;2023-06-05T06:32:31;3.63;;;1.80;;
28427;SDS011;15662;49.128;8.520;2023-06-05T06:34:58;4.35;;;1.75;;
28427;SDS011;15662;49.128;8.520;2023-06-05T06:37:28;1.65;;;1.55;;
28427;SDS011;15662;49.128;8.520;2023-06-05T06:39:57;1.90;;;1.80;;
28427;SDS011;15662;49.128;8.520;2023-06-05T06:42:25;2.97;;;1.92;;
28427;SDS011;15662;49.128;8.520;2023-06-05T06:45:14;7.47;;;2.83;;
28427;SDS011;15662;49.128;8.520;2023-06-05T06:47:43;3.50;;;1.77;;
28427;SDS011;15662;49.128;8.520;2023-06-05T06:50:31;1.50;;;1.40;;
28427;SDS011;15662;49.128;8.520;2023-06-05T06:52:59;1.40;;;1.30;;
28427;SDS011;15662;49.128;8.520;2023-06-05T06:55:30;2.60;;;1.27;;
28427;SDS011;15662;49.128;8.520;2023-06-05T06:57:58;1.42;;;1.23;;
28427;SDS011;15662;49.128;8.520;2023-06-05T07:00:26;2.63;;;1.20;;
28427;SDS011;15662;49.128;8.520;2023-06-05T07:02:54;3.63;;;1.85;;
28427;SDS011;15662;49.128;8.520;2023-06-05T07:05:24;2.08;;;1.50;;
28427;SDS011;15662;49.128;8.520;2023-06-05T07:07:53;2.75;;;1.10;;
28427;SDS011;15662;49.128;8.520;2023-06-05T07:10:21;1.27;;;1.05;;
28427;SDS011;15662;49.128;8.520;2023-06-05T07:12:48;1.65;;;1.20;;
28427;SDS011;15662;49.128;8.520;2023-06-05T07:17:49;1.60;;;1.40;;
28427;SDS011;15662;49.128;8.520;2023-06-05T07:20:19;1.30;;;1.10;;
28427;SDS011;15662;49.128;8.520;2023-06-05T07:22:47;1.50;;;1.23;;
28427;SDS011;15662;49.128;8.520;2023-06-05T07:25:15;1.85;;;1.42;;
28427;SDS011;15662;49.128;8.520;2023-06-05T07:27:45;3.30;;;1.15;;
28427;SDS011;15662;49.128;8.520;2023-06-05T07:30:13;1.40;;;1.30;;
28427;SDS011;15662;49.128;8.520;2023-06-05T07:32:41;2.80;;;1.20;;
28427;SDS011;15662;49.128;8.520;2023-06-05T07:35:10;3.10;;;1.50;;
28427;SDS011;15662;49.128;8.520;2023-06-05T07:37:38;2.15;;;1.40;;
28427;SDS011;15662;49.128;8.520;2023-06-05T07:40:06;1.40;;;1.30;;
28427;SDS011;15662;49.128;8.520;2023-06-05T07:42:37;1.73;;;1.42;;
28427;SDS011;15662;49.128;8.520;2023-06-05T07:45:08;2.22;;;1.40;;
28427;SDS011;15662;49.128;8.520;2023-06-05T07:47:36;1.73;;;1.10;;
28427;SDS011;15662;49.128;8.520;2023-06-05T07:50:04;1.40;;;1.30;;
28427;SDS011;15662;49.128;8.520;2023-06-05T07:52:35;1.58;;;1.42;;
28427;SDS011;15662;49.128;8.520;2023-06-05T07:55:04;1.50;;;1.40;;
28427;SDS011;15662;49.128;8.520;2023-06-05T07:57:33;6.63;;;5.25;;
28427;SDS011;15662;49.128;8.520;2023-06-05T08:00:01;2.83;;;2.63;;
28427;SDS011;15662;49.128;8.520;2023-06-05T08:02:38;2.65;;;1.75;;
28427;SDS011;15662;49.128;8.520;2023-06-05T08:05:08;1.92;;;1.60;;
28427;SDS011;15662;49.128;8.520;2023-06-05T08:07:36;2.22;;;1.73;;
28427;SDS011;15662;49.128;8.520;2023-06-05T08:10:04;2.17;;;1.98;;
28427;SDS011;15662;49.128;8.520;2023-06-05T08:12:33;2.95;;;1.80;;
28427;SDS011;15662;49.128;8.520;2023-06-05T08:15:01;1.98;;;1.50;;
28427;SDS011;15662;49.128;8.520;2023-06-05T08:17:30;1.85;;;1.48;;
28427;SDS011;15662;49.128;8.520;2023-06-05T08:19:58;2.08;;;1.45;;
28427;SDS011;15662;49.128;8.520;2023-06-05T08:22:25;2.63;;;1.45;;
28427;SDS011;15662;49.128;8.520;2023-06-05T08:24:55;1.40;;;1.30;;
28427;SDS011;15662;49.128;8.520;2023-06-05T08:27:26;3.90;;;1.70;;
28427;SDS011;15662;49.128;8.520;2023-06-05T08:29:54;1.92;;;1.50;;
28427;SDS011;15662;49.128;8.520;2023-06-05T08:32:22;1.77;;;1.35;;
28427;SDS011;15662;49.128;8.520;2023-06-05T08:34:50;2.35;;;1.25;;
28427;SDS011;15662;49.128;8.520;2023-06-05T08:37:18;1.50;;;1.40;;
28427;SDS011;15662;49.128;8.520;2023-06-05T08:39:46;2.47;;;1.75;;
28427;SDS011;15662;49.128;8.520;2023-06-05T08:42:15;2.13;;;1.60;;
28427;SDS011;15662;49.128;8.520;2023-06-05T08:44:48;3.33;;;1.50;;
28427;SDS011;15662;49.128;8.520;2023-06-05T08:47:29;2.28;;;1.85;;
28427;SDS011;15662;49.128;8.520;2023-06-05T08:49:58;1.95;;;1.85;;
28427;SDS011;15662;49.128;8.520;2023-06-05T08:52:38;1.73;;;1.63;;
28427;SDS011;15662;49.128;8.520;2023-06-05T08:55:09;1.85;;;1.70;;
28427;SDS011;15662;49.128;8.520;2023-06-05T08:57:38;2.63;;;2.08;;
28427;SDS011;15662;49.128;8.520;2023-06-05T09:00:08;2.93;;;2.03;;
28427;SDS011;15662;49.128;8.520;2023-06-05T09:02:38;2.13;;;1.90;;
28427;SDS011;15662;49.128;8.520;2023-06-05T09:05:14;1.67;;;1.58;;
28427;SDS011;15662;49.128;8.520;2023-06-05T09:07:43;1.80;;;1.70;;
28427;SDS011;15662;49.128;8.520;2023-06-05T09:10:21;1.92;;;1.65;;
28427;SDS011;15662;49.128;8.520;2023-06-05T09:12:58;1.85;;;1.75;;
28427;SDS011;15662;49.128;8.520;2023-06-05T09:15:32;2.33;;;1.65;;
28427;SDS011;15662;49.128;8.520;2023-06-05T09:20:40;1.90;;;1.70;;
28427;SDS011;15662;49.128;8.520;2023-06-05T09:23:22;2.72;;;1.90;;
28427;SDS011;15662;49.128;8.520;2023-06-05T09:25:57;2.95;;;2.38;;
28427;SDS011;15662;49.128;8.520;2023-06-05T09:28:27;3.55;;;2.35;;
28427;SDS011;15662;49.128;8.520;2023-06-05T09:33:34;2.58;;;2.00;;
28427;SDS011;15662;49.128;8.520;2023-06-05T09:36:09;4.95;;;2.33;;
28427;SDS011;15662;49.128;8.520;2023-06-05T09:38:41;4.72;;;2.20;;
28427;SDS011;15662;49.128;8.520;2023-06-05T09:41:09;2.65;;;2.45;;
28427;SDS011;15662;49.128;8.520;2023-06-05T09:43:41;2.25;;;2.08;;
28427;SDS011;15662;49.128;8.520;2023-06-05T09:46:13;2.45;;;2.25;;
28427;SDS011;15662;49.128;8.520;2023-06-05T09:48:43;2.40;;;2.20;;
28427;SDS011;15662;49.128;8.520;2023-06-05T09:51:21;2.10;;;1.90;;
28427;SDS011;15662;49.128;8.520;2023-06-05T09:53:49;4.32;;;2.30;;
28427;SDS011;15662;49.128;8.520;2023-06-05T09:56:21;3.22;;;2.25;;
28427;SDS011;15662;49.128;8.520;2023-06-05T09:58:51;2.78;;;2.47;;
28427;SDS011;15662;49.128;8.520;2023-06-05T10:01:22;4.50;;;2.50;;
28427;SDS011;15662;49.128;8.520;2023-06-05T10:04:02;4.47;;;2.20;;
28427;SDS011;15662;49.128;8.520;2023-06-05T10:06:35;2.40;;;2.20;;
28427;SDS011;15662;49.128;8.520;2023-06-05T10:09:06;2.57;;;2.37;;
28427;SDS011;15662;49.128;8.520;2023-06-05T10:11:37;4.68;;;2.40;;
28427;SDS011;15662;49.128;8.520;2023-06-05T10:14:08;2.67;;;2.33;;
28427;SDS011;15662;49.128;8.520;2023-06-05T10:16:37;4.55;;;2.70;;
28427;SDS011;15662;49.128;8.520;2023-06-05T10:19:06;4.28;;;2.72;;
28427;SDS011;15662;49.128;8.520;2023-06-05T10:21:35;6.18;;;2.47;;
28427;SDS011;15662;49.128;8.520;2023-06-05T10:24:07;3.03;;;2.60;;
28427;SDS011;15662;49.128;8.520;2023-06-05T10:35:53;2.70;;;2.50;;
28427;SDS011;15662;49.128;8.520;2023-06-05T10:38:46;3.67;;;2.67;;
28427;SDS011;15662;49.128;8.520;2023-06-05T10:41:14;3.00;;;2.60;;
28427;SDS011;15662;49.128;8.520;2023-06-05T10:43:49;4.55;;;2.80;;
28427;SDS011;15662;49.128;8.520;2023-06-05T10:46:33;2.35;;;2.25;;
28427;SDS011;15662;49.128;8.520;2023-06-05T10:59:19;2.28;;;2.17;;
28427;SDS011;15662;49.128;8.520;2023-06-05T11:07:27;5.55;;;2.30;;
28427;SDS011;15662;49.128;8.520;2023-06-05T11:15:10;2.33;;;2.13;;
28427;SDS011;15662;49.128;8.520;2023-06-05T11:18:50;2.38;;;2.17;;
28427;SDS011;15662;49.128;8.520;2023-06-05T11:21:00;2.35;;;2.15;;
28427;SDS011;15662;49.128;8.520;2023-06-05T11:23:28;2.92;;;2.28;;
28427;SDS011;15662;49.128;8.520;2023-06-05T11:25:58;2.90;;;2.13;;
28427;SDS011;15662;49.128;8.520;2023-06-05T11:31:43;2.22;;;2.03;;
28427;SDS011;15662;49.128;8.520;2023-06-05T11:34:12;2.00;;;1.90;;
28427;SDS011;15662;49.128;8.520;2023-06-05T11:36:41;2.33;;;2.22;;
28427;SDS011;15662;49.128;8.520;2023-06-05T11:39:09;2.53;;;2.35;;
28427;SDS011;15662;49.128;8.520;2023-06-05T11:41:45;2.40;;;2.30;;
28427;SDS011;15662;49.128;8.520;2023-06-05T11:44:15;3.83;;;2.10;;
28427;SDS011;15662;49.128;8.520;2023-06-05T11:46:57;2.53;;;2.17;;
28427;SDS011;15662;49.128;8.520;2023-06-05T11:49:26;3.45;;;2.08;;
28427;SDS011;15662;49.128;8.520;2023-06-05T11:51:56;2.60;;;2.40;;
28427;SDS011;15662;49.128;8.520;2023-06-05T11:54:28;2.22;;;2.10;;
28427;SDS011;15662;49.128;8.520;2023-06-05T11:56:59;2.47;;;2.28;;
28427;SDS011;15662;49.128;8.520;2023-06-05T11:59:35;2.80;;;2.60;;
28427;SDS011;15662;49.128;8.520;2023-06-05T12:02:04;2.55;;;2.35;;
28427;SDS011;15662;49.128;8.520;2023-06-05T12:04:33;2.25;;;2.08;;
28427;SDS011;15662;49.128;8.520;2023-06-05T12:07:02;3.15;;;2.03;;
28427;SDS011;15662;49.128;8.520;2023-06-05T12:09:30;2.72;;;1.92;;
28427;SDS011;15662;49.128;8.520;2023-06-05T12:12:04;5.70;;;2.45;;
28427;SDS011;15662;49.128;8.520;2023-06-05T12:14:34;2.30;;;2.20;;
28427;SDS011;15662;49.128;8.520;2023-06-05T12:17:09;2.50;;;2.30;;
28427;SDS011;15662;49.128;8.520;2023-06-05T12:19:38;2.88;;;2.33;;
28427;SDS011;15662;49.128;8.520;2023-06-05T12:22:07;2.38;;;2.20;;
28427;SDS011;15662;49.128;8.520;2023-06-05T12:24:38;2.30;;;2.20;;
28427;SDS011;15662;49.128;8.520;2023-06-05T12:27:06;4.72;;;2.30;;
28427;SDS011;15662;49.128;8.520;2023-06-05T12:29:35;2.47;;;2.35;;
28427;SDS011;15662;49.128;8.520;2023-06-05T12:32:19;2.45;;;2.35;;
28427;SDS011;15662;49.128;8.520;2023-06-05T12:34:50;2.70;;;2.05;;
28427;SDS011;15662;49.128;8.520;2023-06-05T12:37:22;5.68;;;2.20;;
28427;SDS011;15662;49.128;8.520;2023-06-05T12:39:59;3.72;;;2.30;;
28427;SDS011;15662;49.128;8.520;2023-06-05T12:42:32;2.20;;;2.00;;
28427;SDS011;15662;49.128;8.520;2023-06-05T12:45:04;2.00;;;1.90;;
28427;SDS011;15662;49.128;8.520;2023-06-05T12:47:33;4.05;;;1.90;;
28427;SDS011;15662;49.128;8.520;2023-06-05T12:50:03;2.15;;;2.00;;
28427;SDS011;15662;49.128;8.520;2023-06-05T12:55:01;2.03;;;1.92;;
28427;SDS011;15662;49.128;8.520;2023-06-05T12:57:33;4.25;;;1.73;;
28427;SDS011;15662;49.128;8.520;2023-06-05T13:00:04;2.35;;;2.08;;
28427;SDS011;15662;49.128;8.520;2023-06-05T13:02:43;2.17;;;2.08;;
28427;SDS011;15662;49.128;8.520;2023-06-05T13:05:16;2.47;;;2.00;;
28427;SDS011;15662;49.128;8.520;2023-06-05T13:07:44;1.90;;;1.80;;
28427;SDS011;15662;49.128;8.520;2023-06-05T13:10:12;3.50;;;1.70;;
28427;SDS011;15662;49.128;8.520;2023-06-05T13:12:40;2.05;;;1.95;;
28427;SDS011;15662;49.128;8.520;2023-06-05T13:15:09;2.03;;;1.90;;
28427;SDS011;15662;49.128;8.520;2023-06-05T13:17:38;2.47;;;1.90;;
28427;SDS011;15662;49.128;8.520;2023-06-05T13:20:06;2.40;;;2.13;;
28427;SDS011;15662;49.128;8.520;2023-06-05T13:22:38;2.30;;;2.10;;
28427;SDS011;15662;49.128;8.520;2023-06-05T13:25:08;1.95;;;1.85;;
28427;SDS011;15662;49.128;8.520;2023-06-05T13:27:36;1.70;;;1.60;;
28427;SDS011;15662;49.128;8.520;2023-06-05T13:30:05;2.83;;;1.80;;
28427;SDS011;15662;49.128;8.520;2023-06-05T13:32:34;1.90;;;1.80;;
28427;SDS011;15662;49.128;8.520;2023-06-05T13:35:05;2.05;;;1.95;;
28427;SDS011;15662;49.128;8.520;2023-06-05T13:37:36;3.55;;;1.65;;
28427;SDS011;15662;49.128;8.520;2023-06-05T13:40:05;1.95;;;1.77;;
28427;SDS011;15662;49.128;8.520;2023-06-05T13:42:39;2.10;;;1.90;;
28427;SDS011;15662;49.128;8.520;2023-06-05T13:45:07;1.80;;;1.70;;
28427;SDS011;15662;49.128;8.520;2023-06-05T13:47:40;2.55;;;1.60;;
28427;SDS011;15662;49.128;8.520;2023-06-05T13:50:08;1.70;;;1.60;;
28427;SDS011;15662;49.128;8.520;2023-06-05T13:52:36;2.05;;;1.80;;
28427;SDS011;15662;49.128;8.520;2023-06-05T13:55:05;1.90;;;1.80;;
28427;SDS011;15662;49.128;8.520;2023-06-05T13:57:34;6.22;;;2.00;;
28427;SDS011;15662;49.128;8.520;2023-06-05T14:00:02;1.83;;;1.73;;
28427;SDS011;15662;49.128;8.520;2023-06-05T14:02:32;2.30;;;2.08;;
28427;SDS011;15662;49.128;8.520;2023-06-05T14:05:00;2.70;;;1.80;;
28427;SDS011;15662;49.128;8.520;2023-06-05T14:07:28;2.40;;;2.15;;
28427;SDS011;15662;49.128;8.520;2023-06-05T14:10:13;3.72;;;1.85;;
28427;SDS011;15662;49.128;8.520;2023-06-05T14:12:42;2.28;;;1.70;;
28427;SDS011;15662;49.128;8.520;2023-06-05T14:15:10;1.70;;;1.60;;
28427;SDS011;15662;49.128;8.520;2023-06-05T14:17:38;3.28;;;1.83;;
28427;SDS011;15662;49.128;8.520;2023-06-05T14:20:06;1.75;;;1.65;;
28427;SDS011;15662;49.128;8.520;2023-06-05T14:22:36;1.65;;;1.55;;
28427;SDS011;15662;49.128;8.520;2023-06-05T14:25:04;1.90;;;1.80;;
28427;SDS011;15662;49.128;8.520;2023-06-05T14:27:33;2.13;;;1.92;;
28427;SDS011;15662;49.128;8.520;2023-06-05T14:30:03;1.85;;;1.75;;
28427;SDS011;15662;49.128;8.520;2023-06-05T14:32:31;2.15;;;2.00;;
28427;SDS011;15662;49.128;8.520;2023-06-05T14:34:59;1.75;;;1.63;;
28427;SDS011;15662;49.128;8.520;2023-06-05T14:37:27;1.67;;;1.58;;
28427;SDS011;15662;49.128;8.520;2023-06-05T14:39:55;1.70;;;1.60;;
28427;SDS011;15662;49.128;8.520;2023-06-05T14:42:23;1.85;;;1.42;;
28427;SDS011;15662;49.128;8.520;2023-06-05T14:44:51;1.92;;;1.83;;
28427;SDS011;15662;49.128;8.520;2023-06-05T14:47:19;1.65;;;1.55;;
28427;SDS011;15662;49.128;8.520;2023-06-05T14:49:48;2.40;;;1.50;;
28427;SDS011;15662;49.128;8.520;2023-06-05T14:52:17;2.80;;;1.63;;
28427;SDS011;15662;49.128;8.520;2023-06-05T14:54:46;1.70;;;1.60;;
28427;SDS011;15662;49.128;8.520;2023-06-05T14:57:32;1.85;;;1.60;;
28427;SDS011;15662;49.128;8.520;2023-06-05T15:00:04;3.13;;;1.88;;
28427;SDS011;15662;49.128;8.520;2023-06-05T15:02:37;2.45;;;1.80;;
28427;SDS011;15662;49.128;8.520;2023-06-05T15:05:07;2.77;;;1.70;;
28427;SDS011;15662;49.128;8.520;2023-06-05T15:07:38;1.73;;;1.63;;
28427;SDS011;15662;49.128;8.520;2023-06-05T15:10:07;1.60;;;1.50;;
28427;SDS011;15662;49.128;8.520;2023-06-05T15:12:41;3.30;;;1.65;;
28427;SDS011;15662;49.128;8.520;2023-06-05T15:15:09;1.77;;;1.67;;
28427;SDS011;15662;49.128;8.520;2023-06-05T15:17:47;2.60;;;1.63;;
28427;SDS011;15662;49.128;8.520;2023-06-05T15:20:16;1.90;;;1.52;;
28427;SDS011;15662;49.128;8.520;2023-06-05T15:22:44;1.80;;;1.70;;
28427;SDS011;15662;49.128;8.520;2023-06-05T15:25:18;2.30;;;1.80;;
28427;SDS011;15662;49.128;8.520;2023-06-05T15:27:46;2.08;;;1.65;;
28427;SDS011;15662;49.128;8.520;2023-06-05T15:30:15;1.85;;;1.73;;
28427;SDS011;15662;49.128;8.520;2023-06-05T15:32:43;1.85;;;1.70;;
28427;SDS011;15662;49.128;8.520;2023-06-05T15:35:14;1.70;;;1.60;;
28427;SDS011;15662;49.128;8.520;2023-06-05T15:37:41;1.80;;;1.70;;
28427;SDS011;15662;49.128;8.520;2023-06-05T15:40:09;3.08;;;2.20;;
28427;SDS011;15662;49.128;8.520;2023-06-05T15:42:37;1.50;;;1.40;;
28427;SDS011;15662;49.128;8.520;2023-06-05T15:45:06;2.65;;;1.90;;
28427;SDS011;15662;49.128;8.520;2023-06-05T15:47:39;1.60;;;1.50;;
28427;SDS011;15662;49.128;8.520;2023-06-05T15:50:08;3.33;;;1.80;;
28427;SDS011;15662;49.128;8.520;2023-06-05T15:52:37;2.08;;;1.90;;